createdAt,value
2023-03-28T00:00:58.742Z,3.17
2023-03-28T00:03:29.006Z,4.10
2023-03-28T00:06:00.955Z,4.00
2023-03-28T00:08:30.227Z,3.47
2023-03-28T00:11:05.451Z,3.93
2023-03-28T00:13:33.801Z,3.30
2023-03-28T00:16:09.425Z,4.13
2023-03-28T00:18:39.314Z,4.13
2023-03-28T00:21:20.156Z,3.03
2023-03-28T00:23:52.464Z,4.73
2023-03-28T00:26:22.092Z,4.20
2023-03-28T00:28:51.870Z,3.37
2023-03-28T00:31:20.455Z,5.40
2023-03-28T00:33:48.994Z,3.10
2023-03-28T00:36:23.011Z,3.07
2023-03-28T00:38:52.285Z,4.00
2023-03-28T00:41:22.051Z,3.90
2023-03-28T00:43:51.377Z,3.03
2023-03-28T00:46:22.868Z,3.90
2023-03-28T00:48:53.082Z,2.80
2023-03-28T00:51:24.395Z,3.47
2023-03-28T00:53:53.054Z,4.27
2023-03-28T00:56:23.562Z,3.90
2023-03-28T00:58:53.066Z,7.20
2023-03-28T01:01:22.452Z,4.40
2023-03-28T01:03:56.535Z,3.47
2023-03-28T01:06:26.558Z,3.13
2023-03-28T01:08:55.394Z,3.83
2023-03-28T01:11:24.277Z,3.50
2023-03-28T01:13:53.958Z,3.50
2023-03-28T01:16:23.685Z,3.60
2023-03-28T01:18:53.112Z,5.13
2023-03-28T01:21:49.472Z,3.77
2023-03-28T01:24:32.778Z,3.53
2023-03-28T01:27:08.162Z,3.77
2023-03-28T01:30:01.023Z,4.40
2023-03-28T01:32:49.136Z,4.07
2023-03-28T01:35:23.682Z,5.73
2023-03-28T01:37:55.834Z,4.13
2023-03-28T01:40:33.390Z,4.57
2023-03-28T01:43:07.903Z,4.27
2023-03-28T01:45:41.760Z,5.10
2023-03-28T01:48:14.552Z,4.63
2023-03-28T01:50:46.142Z,4.67
2023-03-28T01:53:19.490Z,3.97
2023-03-28T01:55:53.998Z,4.33
2023-03-28T01:58:25.618Z,4.13
2023-03-28T02:00:58.075Z,4.73
2023-03-28T02:03:27.552Z,4.63
2023-03-28T02:05:57.427Z,5.53
2023-03-28T02:08:29.115Z,8.10
2023-03-28T02:10:58.096Z,4.10
2023-03-28T02:13:29.564Z,4.60
2023-03-28T02:15:59.469Z,5.13
2023-03-28T02:18:30.375Z,4.40
2023-03-28T02:21:00.487Z,5.07
2023-03-28T02:23:32.607Z,4.70
2023-03-28T02:26:01.297Z,5.73
2023-03-28T02:28:31.725Z,5.20
2023-03-28T02:31:01.553Z,4.90
2023-03-28T02:33:38.070Z,5.77
2023-03-28T02:36:13.968Z,5.60
2023-03-28T02:38:46.020Z,4.77
2023-03-28T02:41:18.849Z,5.13
2023-03-28T02:43:56.320Z,4.90
2023-03-28T02:46:28.109Z,6.20
2023-03-28T02:49:10.210Z,4.37
2023-03-28T02:51:41.743Z,4.90
2023-03-28T02:54:22.754Z,5.30
2023-03-28T02:57:01.504Z,4.53
2023-03-28T02:59:33.588Z,4.73
2023-03-28T03:02:02.205Z,5.00
2023-03-28T03:04:30.653Z,5.40
2023-03-28T03:07:01.155Z,6.20
2023-03-28T03:09:30.935Z,5.23
2023-03-28T03:11:59.255Z,5.33
2023-03-28T03:14:27.632Z,4.87
2023-03-28T03:16:56.067Z,6.93
2023-03-28T03:19:24.425Z,8.67
2023-03-28T03:21:54.202Z,5.00
2023-03-28T03:24:22.665Z,5.60
2023-03-28T03:26:52.400Z,5.00
2023-03-28T03:29:20.827Z,5.87
2023-03-28T03:31:49.225Z,5.60
2023-03-28T03:34:17.630Z,4.60
2023-03-28T03:36:46.227Z,5.47
2023-03-28T03:39:14.768Z,5.37
2023-03-28T03:41:43.429Z,6.50
2023-03-28T03:44:13.291Z,6.10
2023-03-28T03:46:41.778Z,7.33
2023-03-28T03:49:10.560Z,5.10
2023-03-28T03:51:39.507Z,4.70
2023-03-28T03:54:08.086Z,5.00
2023-03-28T03:56:36.858Z,5.37
2023-03-28T03:59:05.365Z,5.70
2023-03-28T04:01:35.475Z,5.43
2023-03-28T04:04:03.982Z,5.97
2023-03-28T04:06:32.338Z,7.97
2023-03-28T04:09:00.961Z,5.60
2023-03-28T04:11:29.454Z,5.47
2023-03-28T04:13:57.944Z,5.47
2023-03-28T04:16:26.428Z,5.23
2023-03-28T04:18:56.228Z,4.80
2023-03-28T04:21:27.605Z,4.83
2023-03-28T04:23:56.311Z,5.10
2023-03-28T04:26:27.124Z,4.90
2023-03-28T04:28:55.480Z,5.90
2023-03-28T04:31:28.854Z,5.73
2023-03-28T04:34:00.426Z,7.30
2023-03-28T04:36:29.273Z,5.77
2023-03-28T04:38:59.205Z,6.37
2023-03-28T04:41:27.731Z,11.53
2023-03-28T04:43:56.091Z,7.07
2023-03-28T04:46:24.504Z,5.80
2023-03-28T04:48:56.496Z,6.00
2023-03-28T04:51:28.587Z,7.00
2023-03-28T04:53:57.028Z,4.80
2023-03-28T04:56:25.331Z,4.80
2023-03-28T04:58:53.838Z,6.83
2023-03-28T05:01:22.637Z,5.80
2023-03-28T05:03:51.175Z,8.90
2023-03-28T05:06:19.673Z,5.40
2023-03-28T05:08:49.552Z,6.07
2023-03-28T05:11:18.138Z,7.10
2023-03-28T05:13:46.591Z,6.63
2023-03-28T05:16:15.081Z,5.63
2023-03-28T05:18:43.602Z,5.47
2023-03-28T05:21:12.004Z,5.83
2023-03-28T05:23:40.448Z,12.03
2023-03-28T05:26:10.231Z,6.33
2023-03-28T05:28:38.676Z,4.30
2023-03-28T05:31:08.602Z,5.63
2023-03-28T05:33:37.326Z,6.30
2023-03-28T05:36:06.204Z,6.30
2023-03-28T05:38:34.657Z,8.20
2023-03-28T05:41:03.293Z,5.43
2023-03-28T05:43:33.096Z,6.27
2023-03-28T05:46:01.581Z,5.47
2023-03-28T05:48:29.961Z,6.47
2023-03-28T05:50:58.365Z,8.33
2023-03-28T05:53:27.088Z,7.07
2023-03-28T05:55:55.454Z,6.07
2023-03-28T05:58:24.033Z,6.03
2023-03-28T06:00:53.772Z,6.63
2023-03-28T06:03:22.417Z,9.07
2023-03-28T06:05:50.946Z,5.37
2023-03-28T06:08:19.428Z,5.87
2023-03-28T06:10:48.557Z,5.17
2023-03-28T06:13:17.022Z,6.17
2023-03-28T06:15:45.573Z,6.97
2023-03-28T06:18:15.408Z,5.60
2023-03-28T06:20:43.864Z,5.40
2023-03-28T06:23:12.284Z,5.30
2023-03-28T06:25:40.702Z,5.10
2023-03-28T06:28:09.119Z,5.93
2023-03-28T06:30:39.972Z,4.97
2023-03-28T06:33:08.377Z,4.93
2023-03-28T06:35:38.193Z,4.60
2023-03-28T06:38:06.695Z,4.73
2023-03-28T06:40:35.180Z,7.37
2023-03-28T06:43:03.502Z,5.73
2023-03-28T06:45:31.893Z,5.67
2023-03-28T06:48:00.523Z,5.70
2023-03-28T06:50:28.905Z,5.23
2023-03-28T06:52:59.306Z,5.37
2023-03-28T06:55:27.788Z,5.47
2023-03-28T06:57:56.204Z,5.83
2023-03-28T07:00:24.874Z,5.33
2023-03-28T07:02:53.290Z,7.30
2023-03-28T07:05:21.678Z,6.13
2023-03-28T07:07:50.331Z,6.83
2023-03-28T07:10:20.304Z,6.37
2023-03-28T07:12:48.801Z,5.40
2023-03-28T07:15:19.354Z,10.17
2023-03-28T07:17:48.417Z,5.50
2023-03-28T07:20:16.870Z,5.60
2023-03-28T07:22:45.302Z,7.20
2023-03-28T07:25:13.703Z,4.33
2023-03-28T07:27:43.473Z,4.17
2023-03-28T07:30:12.914Z,5.50
2023-03-28T07:32:53.827Z,7.00
2023-03-28T07:35:28.298Z,3.70
2023-03-28T07:37:57.444Z,5.27
2023-03-28T07:40:26.150Z,4.60
2023-03-28T07:42:56.079Z,3.97
2023-03-28T07:45:24.461Z,3.43
2023-03-28T07:47:52.867Z,5.87
2023-03-28T07:50:23.564Z,3.43
2023-03-28T07:52:57.567Z,4.10
2023-03-28T07:55:26.667Z,5.50
2023-03-28T07:57:56.570Z,2.97
2023-03-28T08:00:25.242Z,3.53
2023-03-28T08:02:53.773Z,4.23
2023-03-28T08:05:24.518Z,3.87
2023-03-28T08:07:53.958Z,3.10
2023-03-28T08:10:22.332Z,4.80
2023-03-28T08:12:51.125Z,6.93
2023-03-28T08:15:21.032Z,2.50
2023-03-28T08:17:49.517Z,4.43
2023-03-28T08:20:19.838Z,4.37
2023-03-28T08:22:48.432Z,3.57
2023-03-28T08:25:16.826Z,5.60
2023-03-28T08:27:45.352Z,2.67
2023-03-28T08:30:13.863Z,2.30
2023-03-28T08:32:43.981Z,5.10
2023-03-28T08:35:13.501Z,3.03
2023-03-28T08:37:41.763Z,2.00
2023-03-28T08:40:16.269Z,3.73
2023-03-28T08:42:51.526Z,3.20
2023-03-28T08:45:25.479Z,5.73
2023-03-28T08:48:04.219Z,2.47
2023-03-28T08:50:35.372Z,3.13
2023-03-28T08:53:04.501Z,3.43
2023-03-28T08:55:36.018Z,4.80
2023-03-28T08:58:05.032Z,4.30
2023-03-28T09:00:34.046Z,3.73
2023-03-28T09:03:03.800Z,3.40
2023-03-28T09:05:41.817Z,2.60
2023-03-28T09:08:34.057Z,2.30
2023-03-28T09:11:05.226Z,2.47
2023-03-28T09:13:37.963Z,2.30
2023-03-28T09:16:19.094Z,2.33
2023-03-28T09:19:04.426Z,2.80
2023-03-28T09:21:35.309Z,4.37
2023-03-28T09:24:11.302Z,2.80
2023-03-28T09:26:41.953Z,2.77
2023-03-28T09:29:12.727Z,3.50
2023-03-28T09:31:43.165Z,2.00
2023-03-28T09:34:17.889Z,2.80
2023-03-28T09:36:49.529Z,2.83
2023-03-28T09:39:21.900Z,4.00
2023-03-28T09:41:53.772Z,3.33
2023-03-28T09:44:27.834Z,2.87
2023-03-28T09:46:58.004Z,2.20
2023-03-28T09:49:27.868Z,3.03
2023-03-28T09:51:57.072Z,2.50
2023-03-28T09:54:29.762Z,2.70
2023-03-28T09:57:01.973Z,4.23
2023-03-28T09:59:31.539Z,2.70
2023-03-28T10:02:02.455Z,2.10
2023-03-28T10:04:37.248Z,3.13
2023-03-28T10:07:20.569Z,1.93
2023-03-28T10:09:49.677Z,2.17
2023-03-28T10:12:21.261Z,2.50
2023-03-28T10:14:49.660Z,2.13
2023-03-28T10:17:19.500Z,2.00
2023-03-28T10:19:50.060Z,2.63
2023-03-28T10:22:22.675Z,3.20
2023-03-28T10:24:51.634Z,3.57
2023-03-28T10:27:24.308Z,2.90
2023-03-28T10:29:53.165Z,2.10
2023-03-28T10:32:26.635Z,1.80
2023-03-28T10:35:03.584Z,2.03
2023-03-28T10:37:32.736Z,4.53
2023-03-28T10:40:02.086Z,2.27
2023-03-28T10:42:40.837Z,2.30
2023-03-28T10:45:20.585Z,2.77
2023-03-28T10:47:49.709Z,3.50
2023-03-28T10:50:29.408Z,2.80
2023-03-28T10:53:05.548Z,1.80
2023-03-28T10:55:40.512Z,2.53
2023-03-28T10:58:13.258Z,3.30
2023-03-28T11:00:43.493Z,2.53
2023-03-28T11:03:18.888Z,2.70
2023-03-28T11:06:08.124Z,2.67
2023-03-28T11:08:41.416Z,2.10
2023-03-28T11:11:15.321Z,3.00
2023-03-28T11:13:49.734Z,2.40
2023-03-28T11:16:22.843Z,3.30
2023-03-28T11:18:58.025Z,2.73
2023-03-28T11:21:31.351Z,2.50
2023-03-28T11:24:04.708Z,2.97
2023-03-28T11:26:35.280Z,2.30
2023-03-28T11:29:08.895Z,2.27
2023-03-28T11:31:38.950Z,2.00
2023-03-28T11:34:09.180Z,1.90
2023-03-28T11:36:42.735Z,2.93
2023-03-28T11:39:15.590Z,2.10
2023-03-28T11:41:44.915Z,3.30
2023-03-28T11:44:16.368Z,3.57
2023-03-28T11:46:47.401Z,2.40
2023-03-28T11:49:19.270Z,2.80
2023-03-28T11:51:52.209Z,3.47
2023-03-28T11:54:22.219Z,2.70
2023-03-28T11:56:54.469Z,3.27
2023-03-28T11:59:25.563Z,2.17
2023-03-28T12:01:56.916Z,2.80
2023-03-28T12:04:28.889Z,4.10
2023-03-28T12:07:05.513Z,2.83
2023-03-28T12:09:36.603Z,2.70
2023-03-28T12:12:07.798Z,3.63
2023-03-28T12:14:38.677Z,2.50
2023-03-28T12:17:15.779Z,2.33
2023-03-28T12:19:44.209Z,1.90
2023-03-28T12:22:19.601Z,2.47
2023-03-28T12:24:50.386Z,2.90
2023-03-28T12:27:23.583Z,2.20
2023-03-28T12:29:55.003Z,2.30
2023-03-28T12:32:27.738Z,2.40
2023-03-28T12:34:58.988Z,3.57
2023-03-28T12:37:31.100Z,2.40
2023-03-28T12:40:02.449Z,2.50
2023-03-28T12:42:31.117Z,2.80
2023-03-28T12:45:01.230Z,2.67
2023-03-28T12:47:31.004Z,4.03
2023-03-28T12:50:01.641Z,3.67
2023-03-28T12:52:33.388Z,2.20
2023-03-28T12:55:02.622Z,4.77
2023-03-28T12:57:49.557Z,3.10
2023-03-28T13:00:23.068Z,2.40
2023-03-28T13:02:53.669Z,2.93
2023-03-28T13:05:24.695Z,3.20
2023-03-28T13:08:00.431Z,3.33
2023-03-28T13:10:31.739Z,2.57
2023-03-28T13:13:04.345Z,2.90
2023-03-28T13:15:53.205Z,2.70
2023-03-28T13:18:33.923Z,2.80
2023-03-28T13:21:04.571Z,3.47
2023-03-28T13:23:48.013Z,2.97
2023-03-28T13:26:16.554Z,2.87
2023-03-28T13:28:46.392Z,3.03
2023-03-28T13:31:21.612Z,3.13
2023-03-28T13:33:54.595Z,4.43
2023-03-28T13:36:24.658Z,3.83
2023-03-28T13:39:00.364Z,2.83
2023-03-28T13:41:35.929Z,2.53
2023-03-28T13:44:06.175Z,3.20
2023-03-28T13:46:37.029Z,2.70
2023-03-28T13:49:08.511Z,2.47
2023-03-28T13:51:40.025Z,2.47
2023-03-28T13:54:11.118Z,2.90
2023-03-28T13:56:43.547Z,2.37
2023-03-28T13:59:15.704Z,2.77
2023-03-28T14:01:48.067Z,3.03
2023-03-28T14:04:21.698Z,2.93
2023-03-28T14:06:51.133Z,2.80
2023-03-28T14:09:22.012Z,2.80
2023-03-28T14:11:50.816Z,3.13
2023-03-28T14:14:24.478Z,2.83
2023-03-28T14:16:53.571Z,2.97
2023-03-28T14:19:26.108Z,3.70
2023-03-28T14:21:55.485Z,3.00
2023-03-28T14:24:25.274Z,2.70
2023-03-28T14:26:53.686Z,3.83
2023-03-28T14:29:22.988Z,3.20
2023-03-28T14:31:51.457Z,3.87
2023-03-28T14:34:24.749Z,2.30
2023-03-28T14:36:59.410Z,2.57
2023-03-28T14:39:28.630Z,3.13
2023-03-28T14:41:57.337Z,3.50
2023-03-28T14:44:25.875Z,2.90
2023-03-28T14:46:57.669Z,2.63
2023-03-28T14:49:27.051Z,5.37
2023-03-28T14:51:56.401Z,4.00
2023-03-28T14:54:28.609Z,2.70
2023-03-28T14:56:58.582Z,6.20
2023-03-28T14:59:32.976Z,2.53
2023-03-28T15:02:01.993Z,7.57
2023-03-28T15:04:32.134Z,2.33
2023-03-28T15:07:01.946Z,1.80
2023-03-28T15:09:33.744Z,5.63
2023-03-28T15:12:05.249Z,3.00
2023-03-28T15:14:36.899Z,2.93
2023-03-28T15:17:05.747Z,3.13
2023-03-28T15:19:36.627Z,2.47
2023-03-28T15:22:07.218Z,3.90
2023-03-28T15:24:37.561Z,2.53
2023-03-28T15:27:07.489Z,2.40
2023-03-28T15:29:36.898Z,2.80
2023-03-28T15:32:06.612Z,2.70
2023-03-28T15:34:44.145Z,4.63
2023-03-28T15:37:21.798Z,2.10
2023-03-28T15:39:52.684Z,2.67
2023-03-28T15:42:44.981Z,4.10
2023-03-28T15:45:23.922Z,2.53
2023-03-28T15:47:55.557Z,3.83
2023-03-28T15:50:27.712Z,3.53
2023-03-28T15:53:00.400Z,2.10
2023-03-28T15:55:30.431Z,2.60
2023-03-28T15:57:59.514Z,2.70
2023-03-28T16:00:46.076Z,2.90
2023-03-28T16:03:30.388Z,2.97
2023-03-28T16:06:10.262Z,2.43
2023-03-28T16:08:42.179Z,2.63
2023-03-28T16:11:15.537Z,2.10
2023-03-28T16:13:43.904Z,2.57
2023-03-28T16:16:15.860Z,4.00
2023-03-28T16:18:45.483Z,3.97
2023-03-28T16:21:13.905Z,2.83
2023-03-28T16:23:42.347Z,2.33
2023-03-28T16:26:12.169Z,2.63
2023-03-28T16:28:41.079Z,2.90
2023-03-28T16:31:12.834Z,3.83
2023-03-28T16:33:41.185Z,2.83
2023-03-28T16:36:10.059Z,2.60
2023-03-28T16:38:38.506Z,2.40
2023-03-28T16:41:07.076Z,5.07
2023-03-28T16:43:37.867Z,2.27
2023-03-28T16:46:06.646Z,2.33
2023-03-28T16:48:34.990Z,2.40
2023-03-28T16:51:05.244Z,2.90
2023-03-28T16:53:33.987Z,3.50
2023-03-28T16:56:02.712Z,3.17
2023-03-28T16:58:31.715Z,2.17
2023-03-28T17:01:04.969Z,3.13
2023-03-28T17:03:33.571Z,2.70
2023-03-28T17:06:05.914Z,2.43
2023-03-28T17:08:34.295Z,2.57
2023-03-28T17:11:02.837Z,3.63
2023-03-28T17:13:31.561Z,3.67
2023-03-28T17:16:01.757Z,3.87
2023-03-28T17:18:31.907Z,2.73
2023-03-28T17:21:01.917Z,2.03
2023-03-28T17:23:30.603Z,2.10
2023-03-28T17:25:59.087Z,2.53
2023-03-28T17:28:27.931Z,4.50
2023-03-28T17:30:56.545Z,4.60
2023-03-28T17:33:29.414Z,3.30
2023-03-28T17:35:57.895Z,3.67
2023-03-28T17:38:26.406Z,4.80
2023-03-28T17:40:54.842Z,3.10
2023-03-28T17:43:23.223Z,3.00
2023-03-28T17:45:54.877Z,3.47
2023-03-28T17:48:23.357Z,2.60
2023-03-28T17:50:54.713Z,2.10
2023-03-28T17:53:23.102Z,1.80
2023-03-28T17:55:51.396Z,2.77
2023-03-28T17:58:19.866Z,4.73
2023-03-28T18:00:48.268Z,9.10
2023-03-28T18:03:17.016Z,3.47
2023-03-28T18:05:49.089Z,10.40
2023-03-28T18:08:18.930Z,6.60
2023-03-28T18:10:47.804Z,4.87
2023-03-28T18:13:17.325Z,46.67
2023-03-28T18:15:45.682Z,66.63
2023-03-28T18:18:14.181Z,5.50
2023-03-28T18:20:43.936Z,13.90
2023-03-28T18:23:12.481Z,19.50
2023-03-28T18:25:42.292Z,11.80
2023-03-28T18:28:11.097Z,14.27
2023-03-28T18:30:40.581Z,13.40
2023-03-28T18:33:11.650Z,30.13
2023-03-28T18:35:40.067Z,30.70
2023-03-28T18:38:08.458Z,31.40
2023-03-28T18:40:36.871Z,40.20
2023-03-28T18:43:06.710Z,30.50
2023-03-28T18:45:36.402Z,9.33
2023-03-28T18:48:05.325Z,28.37
2023-03-28T18:50:33.776Z,26.80
2023-03-28T18:53:02.076Z,13.60
2023-03-28T18:55:30.729Z,29.00
2023-03-28T18:57:59.135Z,22.83
2023-03-28T19:00:29.684Z,9.43
2023-03-28T19:02:58.215Z,13.63
2023-03-28T19:05:26.854Z,17.43
2023-03-28T19:07:55.597Z,7.60
2023-03-28T19:10:23.965Z,12.67
2023-03-28T19:12:54.177Z,13.90
2023-03-28T19:15:22.877Z,10.73
2023-03-28T19:17:52.846Z,4.60
2023-03-28T19:20:21.367Z,8.93
2023-03-28T19:22:49.668Z,9.47
2023-03-28T19:25:18.116Z,16.20
2023-03-28T19:27:49.542Z,13.57
2023-03-28T19:30:18.161Z,12.97
2023-03-28T19:32:46.507Z,11.47
2023-03-28T19:35:16.344Z,12.20
2023-03-28T19:37:44.677Z,11.93
2023-03-28T19:40:16.549Z,13.83
2023-03-28T19:42:44.920Z,16.60
2023-03-28T19:45:13.981Z,13.43
2023-03-28T19:47:42.365Z,13.27
2023-03-28T19:50:11.849Z,10.50
2023-03-28T19:52:42.568Z,6.67
2023-03-28T19:55:11.260Z,8.03
2023-03-28T19:57:39.593Z,5.10
2023-03-28T20:00:11.240Z,3.60
2023-03-28T20:02:39.739Z,2.63
2023-03-28T20:05:08.571Z,2.43
2023-03-28T20:07:37.152Z,3.57
2023-03-28T20:10:07.619Z,3.80
2023-03-28T20:12:39.780Z,3.47
2023-03-28T20:15:08.909Z,4.50
2023-03-28T20:17:37.327Z,4.07
2023-03-28T20:20:07.043Z,3.97
2023-03-28T20:22:35.658Z,7.57
2023-03-28T20:25:04.264Z,5.63
2023-03-28T20:27:34.126Z,5.37
2023-03-28T20:30:03.462Z,3.70
2023-03-28T20:32:31.915Z,2.20
2023-03-28T20:35:00.487Z,3.73
2023-03-28T20:37:28.767Z,4.63
2023-03-28T20:39:57.198Z,3.87
2023-03-28T20:42:29.866Z,8.13
2023-03-28T20:45:00.267Z,5.20
2023-03-28T20:47:28.812Z,5.50
2023-03-28T20:49:59.256Z,4.53
2023-03-28T20:52:27.720Z,4.93
2023-03-28T20:54:56.066Z,2.97
2023-03-28T20:57:25.611Z,3.40
2023-03-28T20:59:55.232Z,5.03
2023-03-28T21:02:26.298Z,3.57
2023-03-28T21:04:55.327Z,1.90
2023-03-28T21:07:25.038Z,2.57
2023-03-28T21:09:53.556Z,2.57
2023-03-28T21:12:21.925Z,2.07
2023-03-28T21:14:50.362Z,2.70
2023-03-28T21:17:22.070Z,2.20
2023-03-28T21:19:51.927Z,1.57
2023-03-28T21:22:20.668Z,2.97
2023-03-28T21:24:49.097Z,3.00
2023-03-28T21:27:18.654Z,2.80
2023-03-28T21:29:47.129Z,2.40
2023-03-28T21:32:16.016Z,2.00
2023-03-28T21:34:44.844Z,1.67
2023-03-28T21:37:14.554Z,2.43
2023-03-28T21:39:43.255Z,1.90
2023-03-28T21:42:11.644Z,2.43
2023-03-28T21:44:40.153Z,1.80
2023-03-28T21:47:09.063Z,2.00
2023-03-28T21:49:37.648Z,2.00
2023-03-28T21:52:06.327Z,2.00
2023-03-28T21:54:36.046Z,3.03
2023-03-28T21:57:04.522Z,1.80
2023-03-28T21:59:32.949Z,2.47
2023-03-28T22:02:01.697Z,2.07
2023-03-28T22:04:30.321Z,2.33
2023-03-28T22:06:58.760Z,1.83
2023-03-28T22:09:28.025Z,1.47
2023-03-28T22:11:57.714Z,1.73
2023-03-28T22:14:26.477Z,3.83
2023-03-28T22:16:55.340Z,1.60
2023-03-28T22:19:25.165Z,1.80
2023-03-28T22:21:53.505Z,2.83
2023-03-28T22:24:21.914Z,1.80
2023-03-28T22:26:50.250Z,1.50
2023-03-28T22:29:20.463Z,2.10
2023-03-28T22:31:48.938Z,1.93
2023-03-28T22:34:17.829Z,2.03
2023-03-28T22:36:46.161Z,1.80
2023-03-28T22:39:17.728Z,1.60
2023-03-28T22:41:46.127Z,2.00
2023-03-28T22:44:14.639Z,1.60
2023-03-28T22:46:44.557Z,2.27
2023-03-28T22:49:12.986Z,1.90
2023-03-28T22:51:46.151Z,2.17
2023-03-28T22:54:16.074Z,1.87
2023-03-28T22:56:45.948Z,5.20
2023-03-28T22:59:14.725Z,1.83
2023-03-28T23:01:45.480Z,1.80
2023-03-28T23:04:14.196Z,2.43
2023-03-28T23:06:43.239Z,1.53
2023-03-28T23:09:12.129Z,1.80
2023-03-28T23:11:40.563Z,3.43
2023-03-28T23:14:09.296Z,1.93
2023-03-28T23:16:38.508Z,1.60
2023-03-28T23:19:08.562Z,2.03
2023-03-28T23:21:37.966Z,2.13
2023-03-28T23:24:08.514Z,2.13
2023-03-28T23:26:36.922Z,2.07
2023-03-28T23:29:05.557Z,2.80
2023-03-28T23:31:34.028Z,2.33
2023-03-28T23:34:02.468Z,1.93
2023-03-28T23:36:32.252Z,3.23
2023-03-28T23:39:00.789Z,1.60
2023-03-28T23:41:29.198Z,1.60
2023-03-28T23:43:57.574Z,1.80
2023-03-28T23:46:26.041Z,2.10
2023-03-28T23:48:54.560Z,1.97
2023-03-28T23:51:24.407Z,2.43
2023-03-28T23:53:55.233Z,2.33
2023-03-28T23:56:23.920Z,2.03
2023-03-28T23:58:52.455Z,1.93
